DLH9U EGLL-EDDF
Flight info
| Callsign | DLH9U |
|---|---|
| Flight time | 1h 7m |
| Altitude | 35000 |
| Route | BPK Q295 MATCH DCT REDFA DCT TACHA DCT NOLRU DCT DIXAT DIXAT1A |
| Aircraft | A320/M-SDE2E3FGIJ1LORWXYZ/HB1 |
Departure
| Time | 2026-05-04 10:40 |
|---|---|
| Airport | London Heathrow Airport (EGLL) |
Arrival
| Time | 2026-05-04 11:48 |
|---|---|
| Airport | Frankfurt Main Airport (EDDF) |
| Time | Latitude | Longitude | Altitude | Speed | Heading |
|---|---|---|---|---|---|
| 2026-05-04 10:19 | 51.46953 | -0.44724 | 86 ft | 0 kts | 265° |
| 2026-05-04 10:33 | 51.46954 | -0.44688 | 88 ft | 4 kts | 265° |
| 2026-05-04 10:33 | 51.46956 | -0.44645 | 86 ft | 4 kts | 265° |
| 2026-05-04 10:34 | 51.46958 | -0.44608 | 88 ft | 2 kts | 266° |
| 2026-05-04 10:34 | 51.46963 | -0.44571 | 90 ft | 4 kts | 228° |
| 2026-05-04 10:34 | 51.46983 | -0.44556 | 86 ft | 3 kts | 179° |
| 2026-05-04 10:34 | 51.47000 | -0.44556 | 86 ft | 0 kts | 179° |
| 2026-05-04 10:36 | 51.46986 | -0.44556 | 89 ft | 7 kts | 180° |
| 2026-05-04 10:37 | 51.46924 | -0.44555 | 86 ft | 9 kts | 180° |
| 2026-05-04 10:37 | 51.46866 | -0.44555 | 88 ft | 9 kts | 180° |
| 2026-05-04 10:37 | 51.46791 | -0.44553 | 89 ft | 13 kts | 174° |
| 2026-05-04 10:37 | 51.46753 | -0.44425 | 90 ft | 15 kts | 90° |
| 2026-05-04 10:39 | 51.46608 | -0.44053 | 86 ft | 0 kts | 179° |
| 2026-05-04 10:39 | 51.46535 | -0.44051 | 86 ft | 15 kts | 179° |
| 2026-05-04 10:39 | 51.46492 | -0.44175 | 89 ft | 13 kts | 269° |
| 2026-05-04 10:40 | 51.46492 | -0.44486 | 88 ft | 60 kts | 270° |
| 2026-05-04 10:40 | 51.46488 | -0.45525 | 86 ft | 124 kts | 270° |
| 2026-05-04 10:40 | 51.46480 | -0.47191 | 115 ft | 170 kts | 271° |
| 2026-05-04 10:40 | 51.46466 | -0.49043 | 841 ft | 165 kts | 271° |
| 2026-05-04 10:41 | 51.46573 | -0.50873 | 1467 ft | 169 kts | 290° |
| 2026-05-04 10:41 | 51.47093 | -0.52685 | 1807 ft | 190 kts | 299° |
| 2026-05-04 10:41 | 51.47735 | -0.54672 | 2123 ft | 212 kts | 298° |
| 2026-05-04 10:41 | 51.48389 | -0.56692 | 2447 ft | 234 kts | 298° |
| 2026-05-04 10:42 | 51.49163 | -0.59106 | 2943 ft | 255 kts | 297° |
| 2026-05-04 10:42 | 51.49982 | -0.61686 | 3769 ft | 262 kts | 297° |
| 2026-05-04 10:42 | 51.51054 | -0.64071 | 4673 ft | 268 kts | 322° |
| 2026-05-04 10:42 | 51.52770 | -0.65204 | 5527 ft | 273 kts | 353° |
| 2026-05-04 10:43 | 51.54687 | -0.65233 | 6426 ft | 279 kts | 8° |
| 2026-05-04 10:44 | 51.63751 | -0.47243 | 10795 ft | 356 kts | 64° |
| 2026-05-04 10:45 | 51.64886 | -0.43617 | 11190 ft | 370 kts | 64° |
| 2026-05-04 10:45 | 51.66029 | -0.39917 | 11873 ft | 375 kts | 64° |
| 2026-05-04 10:45 | 51.67189 | -0.36133 | 12592 ft | 379 kts | 64° |
| 2026-05-04 10:45 | 51.68363 | -0.32296 | 13310 ft | 383 kts | 65° |
| 2026-05-04 10:46 | 51.69545 | -0.28424 | 13990 ft | 387 kts | 65° |
| 2026-05-04 10:46 | 51.70735 | -0.24530 | 14610 ft | 390 kts | 65° |
| 2026-05-04 10:46 | 51.71943 | -0.20580 | 15235 ft | 393 kts | 65° |
| 2026-05-04 10:46 | 51.73160 | -0.16604 | 15849 ft | 397 kts | 65° |
| 2026-05-04 10:47 | 51.74343 | -0.12562 | 16433 ft | 399 kts | 70° |
| 2026-05-04 10:47 | 51.75148 | -0.08265 | 17027 ft | 401 kts | 80° |
| 2026-05-04 10:47 | 51.75556 | -0.03813 | 17593 ft | 403 kts | 84° |
| 2026-05-04 10:47 | 51.75922 | 0.00680 | 18154 ft | 406 kts | 84° |
| 2026-05-04 10:49 | 51.79212 | 0.33079 | 21480 ft | 429 kts | 77° |
| 2026-05-04 10:49 | 51.79965 | 0.37755 | 21934 ft | 432 kts | 77° |
| 2026-05-04 10:50 | 51.80718 | 0.42460 | 22374 ft | 435 kts | 77° |
| 2026-05-04 10:51 | 51.86082 | 0.76652 | 24862 ft | 460 kts | 77° |
| 2026-05-04 10:52 | 51.86861 | 0.81669 | 25210 ft | 462 kts | 77° |
| 2026-05-04 10:52 | 51.87645 | 0.86721 | 25549 ft | 464 kts | 77° |
| 2026-05-04 10:52 | 51.88434 | 0.91805 | 25882 ft | 466 kts | 77° |
| 2026-05-04 10:54 | 51.93993 | 1.28267 | 27871 ft | 485 kts | 78° |
| 2026-05-04 10:54 | 51.94794 | 1.33588 | 28151 ft | 487 kts | 78° |
| 2026-05-04 10:56 | 52.00336 | 1.70978 | 30698 ft | 485 kts | 79° |
| 2026-05-04 10:56 | 52.01114 | 1.76304 | 31027 ft | 485 kts | 79° |
| 2026-05-04 10:56 | 52.01891 | 1.81611 | 31385 ft | 482 kts | 79° |
| 2026-05-04 10:57 | 52.02660 | 1.86906 | 31695 ft | 482 kts | 79° |
| 2026-05-04 10:57 | 52.03428 | 1.92194 | 32055 ft | 481 kts | 78° |
| 2026-05-04 10:57 | 52.04186 | 1.97409 | 32438 ft | 479 kts | 79° |
| 2026-05-04 10:57 | 52.04960 | 2.02745 | 32728 ft | 480 kts | 79° |
| 2026-05-04 10:58 | 52.05711 | 2.07955 | 33037 ft | 480 kts | 79° |
| 2026-05-04 10:58 | 52.06466 | 2.13235 | 33375 ft | 479 kts | 79° |
| 2026-05-04 10:58 | 52.07215 | 2.18508 | 33720 ft | 478 kts | 79° |
| 2026-05-04 10:58 | 52.07957 | 2.23763 | 34064 ft | 477 kts | 79° |
| 2026-05-04 10:59 | 52.08699 | 2.29021 | 34363 ft | 476 kts | 79° |
| 2026-05-04 10:59 | 52.09436 | 2.34263 | 34665 ft | 475 kts | 79° |
| 2026-05-04 10:59 | 52.10172 | 2.39505 | 34934 ft | 475 kts | 79° |
| 2026-05-04 11:00 | 52.11650 | 2.49998 | 35022 ft | 479 kts | 78° |
| 2026-05-04 11:02 | 52.19656 | 2.91753 | 35026 ft | 483 kts | 75° |
| 2026-05-04 11:05 | 52.15362 | 3.66872 | 34992 ft | 467 kts | 116° |
| 2026-05-04 11:06 | 52.12955 | 3.76803 | 34991 ft | 467 kts | 116° |
| 2026-05-04 11:06 | 52.10558 | 3.86638 | 34990 ft | 467 kts | 116° |
| 2026-05-04 11:10 | 51.93529 | 4.55273 | 35001 ft | 468 kts | 117° |
| 2026-05-04 11:12 | 51.83679 | 4.94067 | 34979 ft | 466 kts | 118° |
| 2026-05-04 11:12 | 51.81188 | 5.03756 | 34977 ft | 466 kts | 118° |
| 2026-05-04 11:13 | 51.78695 | 5.13433 | 34973 ft | 467 kts | 118° |
| 2026-05-04 11:13 | 51.76199 | 5.23069 | 35008 ft | 464 kts | 118° |
| 2026-05-04 11:14 | 51.75778 | 5.24690 | 35010 ft | 463 kts | 118° |
| 2026-05-04 11:16 | 51.63754 | 5.70513 | 34990 ft | 457 kts | 118° |
| 2026-05-04 11:16 | 51.61247 | 5.79936 | 34987 ft | 458 kts | 118° |
| 2026-05-04 11:17 | 51.58727 | 5.89362 | 35002 ft | 458 kts | 119° |
| 2026-05-04 11:19 | 51.49874 | 6.22266 | 34255 ft | 460 kts | 119° |
| 2026-05-04 11:19 | 51.48640 | 6.27012 | 33987 ft | 461 kts | 117° |
| 2026-05-04 11:19 | 51.47458 | 6.31814 | 33712 ft | 463 kts | 117° |
| 2026-05-04 11:19 | 51.46307 | 6.36640 | 33435 ft | 463 kts | 116° |
| 2026-05-04 11:20 | 51.45161 | 6.41466 | 33157 ft | 463 kts | 116° |
| 2026-05-04 11:20 | 51.44009 | 6.46271 | 32879 ft | 461 kts | 117° |
| 2026-05-04 11:20 | 51.42844 | 6.51061 | 32636 ft | 459 kts | 117° |
| 2026-05-04 11:20 | 51.41670 | 6.55821 | 32352 ft | 457 kts | 117° |
| 2026-05-04 11:22 | 51.33535 | 6.88362 | 30203 ft | 441 kts | 118° |
| 2026-05-04 11:22 | 51.32394 | 6.92889 | 29618 ft | 438 kts | 118° |
| 2026-05-04 11:23 | 51.31256 | 6.97388 | 29071 ft | 434 kts | 118° |
| 2026-05-04 11:23 | 51.30139 | 7.01798 | 28533 ft | 429 kts | 118° |
| 2026-05-04 11:24 | 51.19222 | 7.21048 | 26313 ft | 384 kts | 159° |
| 2026-05-04 11:25 | 51.16955 | 7.22845 | 26098 ft | 384 kts | 159° |
| 2026-05-04 11:25 | 51.14564 | 7.24740 | 25885 ft | 383 kts | 159° |
| 2026-05-04 11:25 | 51.12182 | 7.26626 | 25662 ft | 382 kts | 159° |
| 2026-05-04 11:26 | 51.07468 | 7.30436 | 25181 ft | 379 kts | 158° |
| 2026-05-04 11:27 | 50.92460 | 7.46490 | 22391 ft | 381 kts | 130° |
| 2026-05-04 11:28 | 50.90931 | 7.49897 | 21997 ft | 378 kts | 130° |
| 2026-05-04 11:28 | 50.89408 | 7.53336 | 21593 ft | 375 kts | 129° |
| 2026-05-04 11:28 | 50.87920 | 7.56722 | 21190 ft | 374 kts | 129° |
| 2026-05-04 11:28 | 50.86457 | 7.60045 | 20814 ft | 372 kts | 129° |
| 2026-05-04 11:29 | 50.84953 | 7.63448 | 20436 ft | 370 kts | 129° |
| 2026-05-04 11:29 | 50.83480 | 7.66760 | 20068 ft | 367 kts | 129° |
| 2026-05-04 11:29 | 50.82011 | 7.70054 | 19695 ft | 365 kts | 129° |
| 2026-05-04 11:29 | 50.80554 | 7.73311 | 19350 ft | 362 kts | 129° |
| 2026-05-04 11:31 | 50.70570 | 7.95578 | 16712 ft | 347 kts | 129° |
| 2026-05-04 11:33 | 50.60930 | 8.16905 | 15007 ft | 339 kts | 128° |
| 2026-05-04 11:33 | 50.59557 | 8.19925 | 14967 ft | 340 kts | 129° |
| 2026-05-04 11:33 | 50.58183 | 8.22938 | 14669 ft | 337 kts | 128° |
| 2026-05-04 11:35 | 50.51566 | 8.37452 | 13187 ft | 329 kts | 128° |
| 2026-05-04 11:35 | 50.50231 | 8.40369 | 12858 ft | 329 kts | 128° |
| 2026-05-04 11:35 | 50.48896 | 8.43280 | 12542 ft | 328 kts | 128° |
| 2026-05-04 11:35 | 50.47571 | 8.46166 | 12237 ft | 327 kts | 128° |
| 2026-05-04 11:36 | 50.46243 | 8.49060 | 11931 ft | 325 kts | 128° |
| 2026-05-04 11:36 | 50.44920 | 8.51932 | 11619 ft | 324 kts | 128° |
| 2026-05-04 11:36 | 50.43595 | 8.54793 | 11326 ft | 323 kts | 128° |
| 2026-05-04 11:36 | 50.42281 | 8.57639 | 11029 ft | 322 kts | 128° |
| 2026-05-04 11:37 | 50.40972 | 8.60474 | 10742 ft | 320 kts | 128° |
| 2026-05-04 11:37 | 50.39669 | 8.63296 | 10450 ft | 320 kts | 128° |
| 2026-05-04 11:37 | 50.38363 | 8.66120 | 10164 ft | 318 kts | 128° |
| 2026-05-04 11:37 | 50.37076 | 8.68905 | 9995 ft | 314 kts | 128° |
| 2026-05-04 11:38 | 50.35849 | 8.71566 | 10011 ft | 299 kts | 128° |
| 2026-05-04 11:38 | 50.34638 | 8.74184 | 10013 ft | 295 kts | 129° |
| 2026-05-04 11:38 | 50.33420 | 8.76805 | 10013 ft | 294 kts | 129° |
| 2026-05-04 11:38 | 50.32213 | 8.79401 | 9913 ft | 296 kts | 129° |
| 2026-05-04 11:39 | 50.31006 | 8.81986 | 9602 ft | 292 kts | 129° |
| 2026-05-04 11:39 | 50.29819 | 8.84536 | 9284 ft | 289 kts | 129° |
| 2026-05-04 11:40 | 50.21970 | 8.97528 | 7324 ft | 274 kts | 163° |
| 2026-05-04 11:41 | 50.20167 | 8.98477 | 6959 ft | 273 kts | 164° |
| 2026-05-04 11:41 | 50.18370 | 8.99416 | 6598 ft | 272 kts | 164° |
| 2026-05-04 11:41 | 50.16573 | 9.00355 | 6222 ft | 272 kts | 164° |
| 2026-05-04 11:41 | 50.14757 | 9.01037 | 5850 ft | 266 kts | 184° |
| 2026-05-04 11:42 | 50.13065 | 9.00179 | 5725 ft | 258 kts | 219° |
| 2026-05-04 11:42 | 50.12030 | 8.97952 | 5472 ft | 258 kts | 253° |
| 2026-05-04 11:42 | 50.11988 | 8.95199 | 5151 ft | 253 kts | 278° |
| 2026-05-04 11:42 | 50.12089 | 8.92575 | 4858 ft | 234 kts | 256° |
| 2026-05-04 11:43 | 50.11535 | 8.90249 | 4580 ft | 229 kts | 247° |
| 2026-05-04 11:43 | 50.10944 | 8.87957 | 4253 ft | 223 kts | 249° |
| 2026-05-04 11:43 | 50.10413 | 8.85735 | 3966 ft | 214 kts | 249° |
| 2026-05-04 11:43 | 50.09908 | 8.83589 | 3689 ft | 209 kts | 249° |
| 2026-05-04 11:44 | 50.09413 | 8.81488 | 3411 ft | 203 kts | 249° |
| 2026-05-04 11:44 | 50.08931 | 8.79445 | 3140 ft | 199 kts | 248° |
| 2026-05-04 11:44 | 50.08468 | 8.77480 | 2896 ft | 189 kts | 249° |
| 2026-05-04 11:44 | 50.08023 | 8.75598 | 2633 ft | 180 kts | 249° |
| 2026-05-04 11:45 | 50.07599 | 8.73804 | 2396 ft | 174 kts | 248° |
| 2026-05-04 11:45 | 50.07187 | 8.72065 | 2160 ft | 168 kts | 248° |
| 2026-05-04 11:45 | 50.06795 | 8.70407 | 1964 ft | 158 kts | 249° |
| 2026-05-04 11:45 | 50.06431 | 8.68871 | 1763 ft | 144 kts | 247° |
| 2026-05-04 11:46 | 50.06091 | 8.67437 | 1573 ft | 138 kts | 248° |
| 2026-05-04 11:46 | 50.05767 | 8.66072 | 1375 ft | 134 kts | 249° |
| 2026-05-04 11:46 | 50.05441 | 8.64704 | 1209 ft | 137 kts | 250° |
| 2026-05-04 11:46 | 50.05113 | 8.63321 | 1026 ft | 138 kts | 250° |
| 2026-05-04 11:47 | 50.04782 | 8.61920 | 823 ft | 139 kts | 250° |
| 2026-05-04 11:47 | 50.04445 | 8.60510 | 650 ft | 140 kts | 251° |
| 2026-05-04 11:47 | 50.04109 | 8.59097 | 471 ft | 140 kts | 250° |
| 2026-05-04 11:47 | 50.03777 | 8.57704 | 364 ft | 128 kts | 251° |
| 2026-05-04 11:48 | 50.03525 | 8.56643 | 353 ft | 70 kts | 250° |
| 2026-05-04 11:48 | 50.03440 | 8.56216 | 351 ft | 30 kts | 264° |
| 2026-05-04 11:48 | 50.03454 | 8.55904 | 350 ft | 30 kts | 281° |
| 2026-05-04 11:48 | 50.03512 | 8.55699 | 345 ft | 17 kts | 346° |
| 2026-05-04 11:49 | 50.03576 | 8.55826 | 350 ft | 16 kts | 70° |
| 2026-05-04 11:49 | 50.03616 | 8.55991 | 356 ft | 16 kts | 69° |
| 2026-05-04 11:49 | 50.03656 | 8.56159 | 352 ft | 17 kts | 70° |
| 2026-05-04 11:49 | 50.03699 | 8.56340 | 361 ft | 19 kts | 69° |
| 2026-05-04 11:50 | 50.03747 | 8.56541 | 354 ft | 21 kts | 69° |
| 2026-05-04 11:50 | 50.03800 | 8.56762 | 360 ft | 22 kts | 70° |
| 2026-05-04 11:50 | 50.03856 | 8.56996 | 361 ft | 24 kts | 69° |
| 2026-05-04 11:50 | 50.03911 | 8.57227 | 362 ft | 23 kts | 70° |
| 2026-05-04 11:51 | 50.03966 | 8.57456 | 364 ft | 23 kts | 70° |
| 2026-05-04 11:51 | 50.04022 | 8.57690 | 367 ft | 24 kts | 69° |
| 2026-05-04 11:51 | 50.04082 | 8.57939 | 367 ft | 25 kts | 69° |
| 2026-05-04 11:51 | 50.04146 | 8.58204 | 369 ft | 26 kts | 70° |
| 2026-05-04 11:52 | 50.04210 | 8.58473 | 369 ft | 27 kts | 69° |
| 2026-05-04 11:52 | 50.04278 | 8.58757 | 371 ft | 28 kts | 70° |
| 2026-05-04 11:52 | 50.04345 | 8.59036 | 377 ft | 27 kts | 69° |
| 2026-05-04 11:52 | 50.04407 | 8.59293 | 376 ft | 23 kts | 69° |
| 2026-05-04 11:53 | 50.04462 | 8.59462 | 375 ft | 17 kts | 33° |
| 2026-05-04 11:53 | 50.04590 | 8.59468 | 373 ft | 20 kts | 356° |
| 2026-05-04 11:53 | 50.04736 | 8.59423 | 372 ft | 23 kts | 340° |
| 2026-05-04 11:53 | 50.04839 | 8.59331 | 370 ft | 9 kts | 303° |
| 2026-05-04 11:55 | 50.04930 | 8.59255 | 365 ft | 0 kts | 340° |